createdAt,value
2022-12-14T00:01:45.041Z,32.92
2022-12-14T00:04:18.804Z,29.95
2022-12-14T00:06:46.079Z,28.65
2022-12-14T00:09:13.203Z,27.15
2022-12-14T00:11:40.254Z,26.40
2022-12-14T00:14:07.655Z,27.95
2022-12-14T00:16:35.307Z,30.02
2022-12-14T00:19:03.126Z,30.15
2022-12-14T00:21:30.484Z,23.55
2022-12-14T00:23:59.524Z,23.13
2022-12-14T00:26:32.036Z,25.67
2022-12-14T00:29:01.537Z,30.83
2022-12-14T00:31:29.780Z,29.17
2022-12-14T00:33:56.732Z,29.55
2022-12-14T00:36:24.375Z,31.33
2022-12-14T00:38:51.437Z,27.92
2022-12-14T00:41:18.471Z,29.95
2022-12-14T00:43:45.432Z,27.05
2022-12-14T00:46:17.023Z,26.63
2022-12-14T00:48:44.305Z,26.98
2022-12-14T00:51:11.277Z,26.33
2022-12-14T00:53:38.182Z,27.63
2022-12-14T00:56:07.835Z,24.35
2022-12-14T00:58:35.483Z,26.90
2022-12-14T01:01:06.932Z,28.13
2022-12-14T01:03:34.964Z,25.42
2022-12-14T01:06:02.929Z,26.08
2022-12-14T01:08:35.494Z,27.80
2022-12-14T01:11:10.513Z,26.13
2022-12-14T01:13:38.566Z,25.35
2022-12-14T01:16:12.688Z,28.67
2022-12-14T01:18:42.708Z,24.67
2022-12-14T01:21:20.220Z,24.52
2022-12-14T01:23:51.555Z,25.83
2022-12-14T01:26:19.590Z,23.10
2022-12-14T01:28:48.013Z,25.17
2022-12-14T01:31:19.182Z,26.48
2022-12-14T01:33:46.708Z,27.55
2022-12-14T01:36:23.512Z,24.95
2022-12-14T01:38:56.649Z,26.60
2022-12-14T01:41:27.684Z,25.85
2022-12-14T01:56:57.347Z,28.80
2022-12-14T01:59:46.794Z,25.92
2022-12-14T02:02:18.812Z,25.27
2022-12-14T02:04:57.426Z,24.30
2022-12-14T02:07:28.368Z,23.90
2022-12-14T02:10:01.614Z,26.40
2022-12-14T02:12:43.852Z,24.23
2022-12-14T02:15:12.987Z,23.63
2022-12-14T02:17:43.463Z,26.65
2022-12-14T02:20:12.479Z,23.08
2022-12-14T02:23:33.760Z,24.63
2022-12-14T02:26:31.075Z,26.65
2022-12-14T02:29:28.799Z,24.30
2022-12-14T02:32:09.948Z,22.05
2022-12-14T02:34:42.633Z,24.23
2022-12-14T02:40:24.839Z,23.15
2022-12-14T02:43:07.372Z,21.85
2022-12-14T02:45:46.940Z,22.70
2022-12-14T02:48:20.419Z,19.80
2022-12-14T02:51:15.635Z,22.55
2022-12-14T02:54:02.411Z,25.55
2022-12-14T02:56:44.634Z,20.75
2022-12-14T02:59:12.199Z,20.50
2022-12-14T03:01:41.681Z,19.85
2022-12-14T03:04:14.721Z,23.65
2022-12-14T03:06:57.895Z,23.70
2022-12-14T03:09:29.917Z,22.60
2022-12-14T03:12:05.751Z,18.98
2022-12-14T03:14:42.753Z,23.73
2022-12-14T03:17:32.972Z,24.67
2022-12-14T03:20:18.759Z,23.35
2022-12-14T03:22:59.080Z,22.02
2022-12-14T03:25:56.536Z,21.13
2022-12-14T03:28:48.695Z,21.80
2022-12-14T03:31:39.987Z,26.07
2022-12-14T03:34:14.037Z,24.30
2022-12-14T03:36:49.460Z,25.40
2022-12-14T03:39:28.268Z,22.92
2022-12-14T03:42:27.956Z,25.98
2022-12-14T03:45:12.406Z,25.80
2022-12-14T03:48:14.928Z,24.55
2022-12-14T03:51:28.774Z,26.02
2022-12-14T03:54:52.364Z,23.70
2022-12-14T04:00:10.811Z,22.27
2022-12-14T04:03:11.981Z,23.40
2022-12-14T04:06:21.592Z,24.23
2022-12-14T04:09:04.078Z,24.92
2022-12-14T04:11:58.505Z,24.27
2022-12-14T04:14:53.287Z,24.23
2022-12-14T04:17:49.560Z,23.25
2022-12-14T04:20:43.007Z,24.95
2022-12-14T04:23:44.158Z,25.25
2022-12-14T04:26:19.270Z,23.20
2022-12-14T04:29:25.412Z,23.42
2022-12-14T04:32:20.624Z,22.77
2022-12-14T04:35:00.367Z,24.60
2022-12-14T04:37:30.247Z,29.38
2022-12-14T04:40:05.342Z,24.15
2022-12-14T04:42:41.633Z,30.92
2022-12-14T04:45:17.262Z,25.77
2022-12-14T04:47:56.094Z,28.73
2022-12-14T04:50:35.552Z,28.13
2022-12-14T04:53:21.152Z,26.85
2022-12-14T04:56:12.081Z,24.38
2022-12-14T04:58:41.559Z,28.83
2022-12-14T05:02:32.088Z,25.40
2022-12-14T05:05:10.600Z,24.45
2022-12-14T05:07:43.210Z,28.67
2022-12-14T05:10:30.560Z,24.30
2022-12-14T05:13:03.577Z,26.25
2022-12-14T05:15:43.709Z,25.92
2022-12-14T05:18:11.484Z,37.83
2022-12-14T05:20:38.504Z,40.47
2022-12-14T05:23:05.444Z,31.90
2022-12-14T05:25:32.407Z,26.50
2022-12-14T05:27:59.437Z,28.67
2022-12-14T05:30:26.623Z,26.95
2022-12-14T05:32:53.877Z,36.53
2022-12-14T05:35:21.052Z,30.30
2022-12-14T05:37:49.336Z,25.10
2022-12-14T05:40:17.107Z,35.25
2022-12-14T05:42:46.127Z,34.22
2022-12-14T05:45:15.484Z,32.72
2022-12-14T05:47:42.472Z,34.95
2022-12-14T05:50:09.798Z,34.90
2022-12-14T05:52:36.735Z,36.20
2022-12-14T05:55:04.939Z,39.25
2022-12-14T05:57:32.255Z,40.45
2022-12-14T06:00:00.300Z,40.22
2022-12-14T06:02:27.461Z,39.00
2022-12-14T06:04:54.476Z,39.13
2022-12-14T06:07:26.033Z,46.78
2022-12-14T06:09:54.833Z,39.30
2022-12-14T06:12:21.860Z,47.72
2022-12-14T06:14:48.743Z,66.25
2022-12-14T06:17:15.705Z,80.88
2022-12-14T06:19:43.237Z,52.25
2022-12-14T06:22:17.153Z,47.45
2022-12-14T06:24:44.115Z,52.92
2022-12-14T06:27:10.999Z,53.80
2022-12-14T06:29:37.931Z,54.33
2022-12-14T06:32:05.226Z,45.47
2022-12-14T06:34:36.876Z,41.30
2022-12-14T06:37:06.245Z,47.45
2022-12-14T06:39:33.324Z,45.22
2022-12-14T06:42:00.224Z,52.92
2022-12-14T06:44:29.825Z,53.90
2022-12-14T06:46:57.375Z,45.53
2022-12-14T06:49:24.511Z,47.03
2022-12-14T06:51:51.622Z,47.35
2022-12-14T06:54:19.943Z,48.85
2022-12-14T06:56:48.196Z,55.53
2022-12-14T06:59:17.253Z,53.75
2022-12-14T07:01:45.897Z,59.20
2022-12-14T07:04:18.748Z,54.85
2022-12-14T07:06:45.652Z,49.92
2022-12-14T07:09:14.454Z,53.88
2022-12-14T07:11:42.040Z,48.78
2022-12-14T07:14:16.594Z,50.72
2022-12-14T07:16:47.766Z,49.15
2022-12-14T07:19:15.674Z,46.20
2022-12-14T07:21:42.591Z,50.95
2022-12-14T07:24:09.527Z,48.80
2022-12-14T07:26:37.413Z,51.50
2022-12-14T07:29:04.388Z,50.72
2022-12-14T07:31:31.346Z,60.72
2022-12-14T07:34:00.301Z,61.20
2022-12-14T07:36:29.801Z,51.05
2022-12-14T07:38:57.429Z,48.97
2022-12-14T07:41:31.088Z,49.45
2022-12-14T07:44:00.981Z,52.83
2022-12-14T07:46:32.138Z,55.97
2022-12-14T07:49:00.753Z,53.47
2022-12-14T07:51:38.040Z,55.60
2022-12-14T07:54:06.813Z,47.25
2022-12-14T07:56:38.606Z,51.88
2022-12-14T07:59:08.564Z,58.70
2022-12-14T08:01:37.679Z,63.40
2022-12-14T08:04:15.715Z,65.32
2022-12-14T08:06:43.665Z,67.50
2022-12-14T08:09:11.975Z,76.88
2022-12-14T08:11:40.135Z,54.83
2022-12-14T08:14:13.596Z,70.18
2022-12-14T08:16:40.613Z,74.22
2022-12-14T08:19:07.625Z,73.20
2022-12-14T08:21:34.566Z,66.93
2022-12-14T08:24:01.520Z,64.70
2022-12-14T08:26:34.891Z,70.25
2022-12-14T08:29:02.892Z,62.38
2022-12-14T08:31:30.139Z,68.97
2022-12-14T08:34:00.390Z,66.40
2022-12-14T08:36:32.638Z,58.22
2022-12-14T08:39:04.436Z,59.67
2022-12-14T08:41:32.045Z,66.70
2022-12-14T08:44:01.865Z,67.28
2022-12-14T08:46:31.545Z,61.85
2022-12-14T08:48:58.903Z,70.38
2022-12-14T08:51:27.767Z,64.32
2022-12-14T08:53:55.896Z,87.07
2022-12-14T08:56:28.517Z,75.30
2022-12-14T09:01:38.210Z,68.93
2022-12-14T09:04:08.581Z,66.28
2022-12-14T09:06:39.126Z,64.47
2022-12-14T09:09:15.504Z,61.88
2022-12-14T09:11:44.797Z,61.20
2022-12-14T09:14:12.203Z,59.08
2022-12-14T09:16:40.350Z,60.90
2022-12-14T09:19:07.577Z,69.32
2022-12-14T09:21:34.770Z,61.80
2022-12-14T09:24:01.821Z,63.17
2022-12-14T09:26:29.771Z,65.47
2022-12-14T09:28:58.130Z,67.55
2022-12-14T09:31:27.817Z,74.95
2022-12-14T09:33:55.439Z,71.15
2022-12-14T09:36:28.657Z,74.45
2022-12-14T09:38:57.719Z,75.63
2022-12-14T09:41:34.777Z,72.75
2022-12-14T09:44:20.487Z,78.15
2022-12-14T09:47:12.106Z,74.95
2022-12-14T09:49:48.155Z,70.22
2022-12-14T09:52:26.345Z,72.88
2022-12-14T09:54:55.482Z,79.85
2022-12-14T09:57:38.069Z,71.32
2022-12-14T10:00:21.256Z,72.18
2022-12-14T10:03:07.516Z,69.97
2022-12-14T10:06:13.761Z,66.15
2022-12-14T10:09:10.902Z,76.22
2022-12-14T10:12:21.285Z,73.80
2022-12-14T10:15:11.969Z,66.05
2022-12-14T10:18:00.630Z,66.85
2022-12-14T10:20:50.012Z,63.95
2022-12-14T10:23:23.425Z,62.08
2022-12-14T10:25:57.351Z,67.55
2022-12-14T10:29:01.254Z,61.50
2022-12-14T10:32:12.632Z,66.32
2022-12-14T10:34:43.654Z,69.15
2022-12-14T10:37:24.375Z,55.45
2022-12-14T10:40:33.017Z,63.55
2022-12-14T10:43:29.978Z,71.90
2022-12-14T10:46:50.834Z,80.18
2022-12-14T10:49:36.714Z,61.00
2022-12-14T10:52:18.624Z,59.28
2022-12-14T10:54:58.911Z,59.50
2022-12-14T10:57:27.415Z,55.85
2022-12-14T11:00:08.286Z,65.30
2022-12-14T11:02:43.249Z,64.50
2022-12-14T11:05:37.215Z,53.55
2022-12-14T11:08:08.602Z,51.00
2022-12-14T11:10:39.560Z,44.40
2022-12-14T11:13:21.005Z,40.45
2022-12-14T11:15:52.908Z,42.28
2022-12-14T11:18:20.000Z,50.63
2022-12-14T11:20:56.829Z,40.83
2022-12-14T11:23:47.151Z,40.47
2022-12-14T11:26:36.808Z,48.33
2022-12-14T11:29:16.351Z,55.63
2022-12-14T11:31:50.094Z,90.80
2022-12-14T11:34:39.018Z,60.22
2022-12-14T11:37:26.251Z,58.72
2022-12-14T11:40:03.963Z,49.08
2022-12-14T11:42:31.404Z,65.55
2022-12-14T11:45:27.025Z,67.13
2022-12-14T11:48:15.578Z,62.90
2022-12-14T11:50:45.859Z,56.28
2022-12-14T11:53:17.133Z,50.28
2022-12-14T11:55:59.834Z,55.28
2022-12-14T11:58:33.886Z,49.90
2022-12-14T12:01:19.105Z,37.70
2022-12-14T12:03:54.606Z,45.40
2022-12-14T12:06:26.055Z,46.45
2022-12-14T12:09:00.485Z,48.67
2022-12-14T12:11:34.787Z,48.28
2022-12-14T12:14:33.658Z,56.17
2022-12-14T12:17:00.806Z,57.10
2022-12-14T12:19:38.581Z,57.33
2022-12-14T12:22:10.996Z,60.20
2022-12-14T12:25:24.339Z,49.50
2022-12-14T12:28:00.169Z,45.65
2022-12-14T12:30:33.157Z,46.85
2022-12-14T12:33:19.428Z,41.10
2022-12-14T12:49:00.832Z,54.05
2022-12-14T12:51:54.221Z,40.40
2022-12-14T12:54:32.346Z,39.20
2022-12-14T12:57:02.182Z,41.55
2022-12-14T12:59:46.575Z,55.70
2022-12-14T13:02:35.879Z,39.88
2022-12-14T13:05:44.665Z,40.28
2022-12-14T13:08:07.553Z,38.60
2022-12-14T13:11:09.056Z,33.72
2022-12-14T13:13:35.521Z,33.70
2022-12-14T13:16:36.852Z,38.78
2022-12-14T13:22:24.667Z,34.80
2022-12-14T13:24:58.879Z,36.85
2022-12-14T13:27:54.066Z,46.85
2022-12-14T13:31:04.049Z,41.47
2022-12-14T13:34:18.591Z,45.83
2022-12-14T13:37:11.853Z,40.92
2022-12-14T13:42:51.943Z,41.38
2022-12-14T13:45:23.756Z,42.15
2022-12-14T13:47:55.522Z,44.85
2022-12-14T13:50:39.701Z,45.73
2022-12-14T13:53:17.500Z,38.00
2022-12-14T13:55:53.468Z,39.17
2022-12-14T13:58:23.858Z,40.80
2022-12-14T14:01:03.723Z,39.92
2022-12-14T14:03:37.272Z,43.58
2022-12-14T14:06:18.132Z,45.90
2022-12-14T14:08:53.022Z,47.92
2022-12-14T14:11:38.686Z,42.72
2022-12-14T14:14:52.515Z,40.63
2022-12-14T14:17:25.450Z,32.45
2022-12-14T14:19:57.968Z,38.38
2022-12-14T14:22:30.549Z,38.30
2022-12-14T14:25:02.177Z,51.03
2022-12-14T14:27:50.918Z,50.65
2022-12-14T14:30:36.579Z,51.20
2022-12-14T14:33:45.427Z,51.38
2022-12-14T14:36:33.741Z,47.08
2022-12-14T14:39:31.393Z,62.85
2022-12-14T14:41:56.532Z,64.43
2022-12-14T14:44:56.800Z,60.05
2022-12-14T14:47:38.008Z,79.90
2022-12-14T14:50:14.112Z,75.25
2022-12-14T14:52:46.149Z,66.68
2022-12-14T14:58:36.065Z,66.80
2022-12-14T15:01:27.562Z,73.50
2022-12-14T15:04:23.751Z,76.57
2022-12-14T15:06:58.622Z,79.15
2022-12-14T15:09:40.050Z,81.22
2022-12-14T15:12:44.228Z,86.63
2022-12-14T15:15:46.113Z,99.80
2022-12-14T15:18:32.885Z,82.47
2022-12-14T15:21:12.978Z,86.90
2022-12-14T15:23:50.188Z,82.78
2022-12-14T15:26:28.830Z,96.78
2022-12-14T15:29:00.454Z,95.90
2022-12-14T15:31:33.468Z,118.53
2022-12-14T15:34:02.629Z,98.28
2022-12-14T15:36:40.137Z,128.05
2022-12-14T15:39:07.383Z,152.02
2022-12-14T15:41:34.578Z,110.80
2022-12-14T15:44:01.603Z,77.95
2022-12-14T15:46:35.727Z,72.57
2022-12-14T15:49:11.023Z,71.32
2022-12-14T15:51:42.358Z,83.78
2022-12-14T15:54:19.829Z,67.88
2022-12-14T15:56:56.322Z,64.75
2022-12-14T15:59:32.424Z,67.47
2022-12-14T16:02:31.282Z,63.33
2022-12-14T16:05:03.357Z,70.13
2022-12-14T16:07:39.260Z,78.53
2022-12-14T16:10:28.872Z,67.45
2022-12-14T16:13:06.541Z,64.72
2022-12-14T16:15:33.908Z,64.07
2022-12-14T16:18:03.445Z,66.97
2022-12-14T16:20:36.540Z,64.13
2022-12-14T16:23:28.468Z,67.32
2022-12-14T16:26:26.565Z,85.03
2022-12-14T16:29:20.605Z,67.68
2022-12-14T16:31:47.983Z,62.75
2022-12-14T16:34:20.461Z,60.90
2022-12-14T16:37:22.736Z,63.20
2022-12-14T16:39:45.834Z,57.40
2022-12-14T16:42:24.836Z,59.05
2022-12-14T16:44:56.281Z,65.15
2022-12-14T16:47:48.639Z,69.75
2022-12-14T16:50:55.889Z,64.22
2022-12-14T16:53:38.427Z,62.10
2022-12-14T17:09:44.190Z,78.88
2022-12-14T17:12:16.049Z,79.22
2022-12-14T17:14:49.268Z,75.30
2022-12-14T17:17:32.051Z,79.22
2022-12-14T17:19:59.388Z,84.70
2022-12-14T17:22:31.673Z,75.28
2022-12-14T17:25:00.535Z,76.25
2022-12-14T17:27:28.429Z,77.95
2022-12-14T17:29:57.327Z,90.05
2022-12-14T17:32:30.979Z,82.63
2022-12-14T17:34:59.525Z,84.43
2022-12-14T17:37:34.114Z,93.80
2022-12-14T17:40:04.384Z,101.22
2022-12-14T17:42:31.537Z,107.65
2022-12-14T17:45:00.289Z,118.70
2022-12-14T17:47:27.361Z,122.45
2022-12-14T17:49:55.572Z,134.18
2022-12-14T17:52:31.988Z,128.35
2022-12-14T17:54:59.751Z,117.88
2022-12-14T17:57:27.484Z,117.07
2022-12-14T18:00:14.474Z,125.55
2022-12-14T18:02:42.924Z,127.13
2022-12-14T18:05:23.698Z,116.10
2022-12-14T18:07:50.762Z,118.88
2022-12-14T18:10:18.545Z,103.53
2022-12-14T18:12:46.672Z,115.53
2022-12-14T18:15:49.688Z,108.32
2022-12-14T18:18:22.592Z,119.88
2022-12-14T18:20:57.229Z,132.15
2022-12-14T18:23:24.682Z,123.88
2022-12-14T18:25:55.075Z,117.65
2022-12-14T18:28:23.148Z,111.95
2022-12-14T18:30:58.250Z,124.10
2022-12-14T18:33:27.942Z,117.18
2022-12-14T18:35:57.497Z,120.28
2022-12-14T18:38:26.448Z,107.68
2022-12-14T18:40:58.814Z,131.20
2022-12-14T18:43:29.119Z,111.30
2022-12-14T18:45:57.006Z,101.43
2022-12-14T18:48:25.412Z,101.65
2022-12-14T18:50:55.144Z,95.55
2022-12-14T18:53:25.776Z,87.93
2022-12-14T18:55:53.714Z,98.85
2022-12-14T18:58:28.548Z,99.47
2022-12-14T19:01:00.357Z,95.80
2022-12-14T19:03:31.985Z,99.60
2022-12-14T19:09:02.115Z,97.13
2022-12-14T19:11:38.956Z,94.50
2022-12-14T19:14:06.966Z,88.93
2022-12-14T19:16:34.445Z,94.93
2022-12-14T19:19:02.025Z,89.15
2022-12-14T19:21:31.478Z,104.03
2022-12-14T19:23:59.926Z,111.38
2022-12-14T19:26:28.753Z,116.05
2022-12-14T19:28:59.641Z,125.50
2022-12-14T19:31:26.822Z,132.80
2022-12-14T19:33:54.003Z,130.70
2022-12-14T19:36:21.007Z,122.68
2022-12-14T19:38:49.380Z,114.70
2022-12-14T19:41:20.855Z,115.85
2022-12-14T19:43:48.390Z,116.53
2022-12-14T19:46:17.642Z,114.10
2022-12-14T19:48:44.993Z,113.55
2022-12-14T19:51:13.628Z,115.28
2022-12-14T19:53:44.097Z,113.82
2022-12-14T19:56:15.022Z,111.50
2022-12-14T19:58:42.073Z,115.65
2022-12-14T20:01:16.511Z,115.25
2022-12-14T20:03:44.111Z,108.40
2022-12-14T20:06:11.249Z,117.60
2022-12-14T20:08:38.415Z,118.18
2022-12-14T20:11:11.498Z,117.10
2022-12-14T20:13:39.416Z,120.80
2022-12-14T20:16:06.896Z,123.72
2022-12-14T20:18:34.040Z,127.72
2022-12-14T20:21:07.635Z,129.15
2022-12-14T20:23:36.652Z,120.10
2022-12-14T20:26:14.927Z,123.60
2022-12-14T20:28:42.610Z,145.10
2022-12-14T20:31:10.982Z,202.25
2022-12-14T20:33:40.778Z,185.10
2022-12-14T20:36:08.605Z,157.02
2022-12-14T20:38:35.673Z,175.55
2022-12-14T20:41:12.572Z,162.65
2022-12-14T20:43:43.127Z,151.73
2022-12-14T20:46:35.292Z,117.75
2022-12-14T20:49:10.350Z,106.73
2022-12-14T20:51:39.404Z,111.90
2022-12-14T20:54:12.905Z,119.07
2022-12-14T20:56:40.996Z,107.32
2022-12-14T20:59:09.144Z,110.65
2022-12-14T21:01:38.206Z,106.97
2022-12-14T21:04:06.118Z,103.82
2022-12-14T21:06:37.921Z,107.60
2022-12-14T21:09:05.730Z,105.70
2022-12-14T21:12:03.526Z,107.18
2022-12-14T21:14:39.375Z,120.35
2022-12-14T21:17:06.904Z,112.53
2022-12-14T21:19:36.064Z,117.85
2022-12-14T21:22:06.009Z,131.00
2022-12-14T21:27:25.852Z,154.10
2022-12-14T21:29:54.055Z,167.15
2022-12-14T21:32:22.417Z,138.65
2022-12-14T21:34:49.874Z,126.07
2022-12-14T21:37:18.212Z,124.90
2022-12-14T21:39:52.200Z,115.97
2022-12-14T21:42:23.576Z,104.28
2022-12-14T21:44:52.751Z,108.82
2022-12-14T21:47:29.492Z,103.72
2022-12-14T21:49:57.148Z,123.30
2022-12-14T21:52:27.763Z,124.82
2022-12-14T21:54:55.550Z,110.78
2022-12-14T21:57:49.447Z,108.78
2022-12-14T22:00:18.749Z,118.15
2022-12-14T22:02:45.890Z,122.03
2022-12-14T22:05:13.139Z,125.22
2022-12-14T22:07:40.269Z,129.25
2022-12-14T22:10:08.248Z,123.10
2022-12-14T22:12:35.417Z,127.43
2022-12-14T22:15:02.473Z,124.50
2022-12-14T22:17:33.190Z,123.97
2022-12-14T22:20:00.294Z,128.40
2022-12-14T22:22:28.242Z,130.70
2022-12-14T22:24:55.798Z,133.77
2022-12-14T22:27:23.013Z,133.70
2022-12-14T22:29:50.306Z,130.25
2022-12-14T22:32:17.553Z,130.75
2022-12-14T22:34:45.160Z,132.50
2022-12-14T22:37:16.760Z,134.55
2022-12-14T22:39:43.959Z,122.77
2022-12-14T22:42:14.864Z,117.35
2022-12-14T22:44:41.888Z,116.38
2022-12-14T22:47:08.863Z,111.93
2022-12-14T22:49:35.775Z,118.32
2022-12-14T22:52:02.789Z,119.90
2022-12-14T22:54:30.306Z,120.03
2022-12-14T22:57:06.250Z,122.70
2022-12-14T22:59:51.619Z,115.82
2022-12-14T23:02:18.805Z,111.15
2022-12-14T23:04:45.957Z,106.05
2022-12-14T23:07:17.506Z,110.75
2022-12-14T23:10:03.306Z,115.55
2022-12-14T23:12:48.778Z,107.18
2022-12-14T23:15:34.229Z,111.07
2022-12-14T23:18:25.729Z,107.43
2022-12-14T23:21:12.285Z,110.00
2022-12-14T23:24:01.306Z,114.22
2022-12-14T23:26:47.179Z,122.03
2022-12-14T23:29:33.354Z,127.47
2022-12-14T23:32:19.071Z,145.07
2022-12-14T23:35:04.728Z,144.00
2022-12-14T23:37:53.277Z,138.13
2022-12-14T23:40:38.910Z,155.13
2022-12-14T23:43:28.830Z,140.45
2022-12-14T23:46:15.048Z,134.90
2022-12-14T23:49:00.646Z,129.73
2022-12-14T23:51:46.562Z,127.22
2022-12-14T23:54:32.846Z,127.90
2022-12-14T23:57:18.214Z,142.23
